Time;durP1;ratioP1;P1;durP2;ratioP2;P2;SDS_P1;SDS_P2;PMS_P1;PMS_P2;Temp;Humidity;BMP_temperature;BMP_pressure;BME280_temperature;BME280_humidity;BME280_pressure;Samples;Min_cycle;Max_cycle;Signal;HPM_P1;HPM_P2
2023/12/21 00:01:49;;;;;;;41.22;6.45;;;;;;;;;;5063880;28;20044;-82
2023/12/21 00:04:15;;;;;;;34.58;5.63;;;;;;;;;;5047904;28;20037;-82
2023/12/21 00:06:41;;;;;;;35.03;5.25;;;;;;;;;;5063646;28;20445;-83
2023/12/21 00:09:07;;;;;;;42.33;5.60;;;;;;;;;;5048188;28;20032;-83
2023/12/21 00:11:33;;;;;;;37.00;4.47;;;;;;;;;;5035153;28;20044;-83
2023/12/21 00:14:00;;;;;;;33.55;4.80;;;;;;;;;;5033001;28;20032;-83
2023/12/21 00:16:26;;;;;;;28.38;4.22;;;;;;;;;;5065020;28;20040;-83
2023/12/21 00:18:53;;;;;;;40.45;5.47;;;;;;;;;;5031162;28;20028;-82
2023/12/21 00:21:19;;;;;;;31.10;5.25;;;;;;;;;;5031669;28;20040;-82
2023/12/21 00:23:45;;;;;;;37.80;5.28;;;;;;;;;;5065899;28;20036;-82
2023/12/21 00:26:11;;;;;;;29.75;4.38;;;;;;;;;;5044001;28;20124;-82
2023/12/21 00:28:37;;;;;;;40.17;4.97;;;;;;;;;;5063447;28;20575;-82
2023/12/21 00:31:03;;;;;;;39.80;5.25;;;;;;;;;;5066053;28;20044;-83
2023/12/21 00:33:30;;;;;;;35.53;4.53;;;;;;;;;;5068508;28;20379;-81
2023/12/21 00:35:56;;;;;;;34.10;4.32;;;;;;;;;;5050771;28;20067;-81
2023/12/21 00:38:22;;;;;;;32.20;4.00;;;;;;;;;;5063850;28;20028;-82
2023/12/21 00:40:48;;;;;;;32.72;4.57;;;;;;;;;;5068396;28;20377;-82
2023/12/21 00:43:14;;;;;;;39.00;5.95;;;;;;;;;;5063541;28;20047;-82
2023/12/21 00:45:40;;;;;;;33.10;4.85;;;;;;;;;;5063487;28;20085;-81
2023/12/21 00:48:07;;;;;;;28.52;4.68;;;;;;;;;;5051842;28;20499;-82
2023/12/21 00:50:33;;;;;;;32.40;4.57;;;;;;;;;;5048295;28;20052;-82
2023/12/21 00:52:59;;;;;;;29.85;5.03;;;;;;;;;;5061942;28;20039;-81
2023/12/21 00:55:25;;;;;;;30.98;4.38;;;;;;;;;;5049143;28;20410;-86
2023/12/21 00:57:51;;;;;;;29.42;4.38;;;;;;;;;;5069172;28;20040;-87
2023/12/21 01:00:17;;;;;;;37.45;4.38;;;;;;;;;;5030682;28;20039;-85
2023/12/21 01:02:43;;;;;;;24.92;4.82;;;;;;;;;;5063349;28;20045;-84
2023/12/21 01:05:09;;;;;;;25.17;4.30;;;;;;;;;;5046856;28;20067;-88
2023/12/21 01:07:35;;;;;;;26.80;5.07;;;;;;;;;;5063714;28;20134;-87
2023/12/21 01:10:01;;;;;;;26.48;4.47;;;;;;;;;;5066996;28;20079;-87
2023/12/21 01:12:32;;;;;;;23.27;4.05;;;;;;;;;;5064951;28;20040;-88
2023/12/21 01:14:58;;;;;;;28.23;4.07;;;;;;;;;;5083243;28;20058;-78
2023/12/21 01:17:25;;;;;;;17.98;3.20;;;;;;;;;;5035124;28;20036;-77
2023/12/21 01:19:51;;;;;;;24.23;4.18;;;;;;;;;;5050027;28;20181;-77
2023/12/21 01:22:17;;;;;;;28.80;4.55;;;;;;;;;;5045728;28;20051;-78
2023/12/21 01:24:43;;;;;;;32.72;5.43;;;;;;;;;;5051435;28;20047;-78
2023/12/21 01:27:09;;;;;;;26.33;5.38;;;;;;;;;;5070405;28;20040;-77
2023/12/21 01:29:35;;;;;;;21.83;4.82;;;;;;;;;;5065404;28;20143;-78
2023/12/21 01:32:01;;;;;;;23.73;4.15;;;;;;;;;;5050850;28;20500;-79
2023/12/21 01:34:27;;;;;;;26.67;3.75;;;;;;;;;;5051264;28;20564;-79
2023/12/21 01:36:53;;;;;;;20.85;4.05;;;;;;;;;;5050280;28;20111;-78
2023/12/21 01:39:19;;;;;;;29.23;4.97;;;;;;;;;;5049008;28;20388;-77
2023/12/21 01:41:45;;;;;;;27.77;5.03;;;;;;;;;;5047185;28;20477;-77
2023/12/21 01:44:11;;;;;;;27.92;5.22;;;;;;;;;;5047938;28;20032;-78
2023/12/21 01:46:37;;;;;;;26.02;3.67;;;;;;;;;;5065793;28;20041;-77
2023/12/21 01:49:04;;;;;;;25.00;5.10;;;;;;;;;;5050464;28;20075;-77
2023/12/21 01:51:31;;;;;;;21.92;3.22;;;;;;;;;;5048266;28;20048;-80
2023/12/21 01:53:58;;;;;;;28.58;4.93;;;;;;;;;;5066999;28;20032;-79
2023/12/21 01:56:24;;;;;;;16.90;3.85;;;;;;;;;;5063635;28;20036;-77
2023/12/21 01:58:51;;;;;;;19.33;4.13;;;;;;;;;;5067782;28;20391;-77
2023/12/21 02:01:19;;;;;;;21.33;3.83;;;;;;;;;;5045134;28;20046;-77
2023/12/21 02:03:46;;;;;;;31.05;5.47;;;;;;;;;;5048918;28;20417;-77
2023/12/21 02:06:12;;;;;;;24.63;5.53;;;;;;;;;;5046712;28;20048;-80
2023/12/21 02:08:39;;;;;;;19.23;3.53;;;;;;;;;;5049166;28;20040;-80
2023/12/21 02:11:08;;;;;;;27.77;4.57;;;;;;;;;;5033497;28;20044;-80
2023/12/21 02:13:35;;;;;;;31.08;4.65;;;;;;;;;;5048900;28;20032;-80
2023/12/21 02:16:05;;;;;;;31.10;4.88;;;;;;;;;;5065279;28;20109;-79
2023/12/21 02:18:31;;;;;;;27.23;4.40;;;;;;;;;;5065172;28;20040;-80
2023/12/21 02:20:58;;;;;;;33.75;5.05;;;;;;;;;;5068034;28;20040;-80
2023/12/21 02:23:26;;;;;;;32.53;5.50;;;;;;;;;;5069909;28;20036;-80
2023/12/21 02:25:52;;;;;;;25.73;4.22;;;;;;;;;;5069368;28;20040;-88
2023/12/21 02:28:18;;;;;;;26.40;4.65;;;;;;;;;;5068308;28;20050;-85
2023/12/21 02:30:47;;;;;;;28.30;5.20;;;;;;;;;;5055111;28;20507;-88
2023/12/21 02:33:14;;;;;;;29.92;5.38;;;;;;;;;;5032352;28;20044;-86
2023/12/21 02:35:40;;;;;;;26.90;4.45;;;;;;;;;;5053953;28;20044;-86
2023/12/21 02:38:06;;;;;;;24.23;5.22;;;;;;;;;;5047129;28;20055;-83
2023/12/21 02:40:32;;;;;;;26.27;4.75;;;;;;;;;;5036755;28;20042;-84
2023/12/21 02:42:58;;;;;;;31.33;5.63;;;;;;;;;;5069630;28;20090;-87
2023/12/21 02:45:24;;;;;;;23.83;5.15;;;;;;;;;;5036906;28;20075;-84
2023/12/21 02:47:50;;;;;;;30.30;6.35;;;;;;;;;;5053251;28;20040;-85
2023/12/21 02:50:16;;;;;;;22.75;5.13;;;;;;;;;;5069518;28;20040;-86
2023/12/21 02:52:42;;;;;;;23.60;5.25;;;;;;;;;;5052934;28;20032;-87
2023/12/21 02:55:08;;;;;;;24.80;5.38;;;;;;;;;;5052835;28;20509;-83
2023/12/21 02:57:34;;;;;;;23.40;4.85;;;;;;;;;;5052662;28;20064;-87
2023/12/21 03:00:00;;;;;;;33.13;6.07;;;;;;;;;;5053080;28;20036;-82
2023/12/21 03:02:26;;;;;;;21.52;5.40;;;;;;;;;;5049172;28;20100;-86
2023/12/21 03:04:53;;;;;;;25.98;6.75;;;;;;;;;;5068027;28;20036;-87
2023/12/21 03:07:19;;;;;;;19.35;4.53;;;;;;;;;;5051857;28;20047;-86
2023/12/21 03:09:45;;;;;;;29.75;5.45;;;;;;;;;;5069382;28;20032;-82
2023/12/21 03:12:11;;;;;;;23.08;5.97;;;;;;;;;;5070294;28;20491;-84
2023/12/21 03:14:37;;;;;;;24.00;5.72;;;;;;;;;;5053874;28;20131;-87
2023/12/21 03:17:03;;;;;;;27.88;7.20;;;;;;;;;;5052223;28;20044;-84
2023/12/21 03:19:29;;;;;;;16.65;4.43;;;;;;;;;;5051362;28;20044;-88
2023/12/21 03:21:56;;;;;;;30.58;5.75;;;;;;;;;;5071744;28;20176;-86
2023/12/21 03:24:22;;;;;;;19.95;4.93;;;;;;;;;;5069823;28;20109;-87
2023/12/21 03:26:48;;;;;;;22.23;6.15;;;;;;;;;;5067947;28;20135;-83
2023/12/21 03:29:16;;;;;;;22.20;5.78;;;;;;;;;;5070450;28;20048;-87
2023/12/21 03:31:42;;;;;;;14.90;5.88;;;;;;;;;;5066726;28;20507;-87
2023/12/21 03:34:08;;;;;;;18.55;5.20;;;;;;;;;;5052787;28;20047;-86
2023/12/21 03:36:34;;;;;;;22.38;6.40;;;;;;;;;;5070025;28;20052;-87
2023/12/21 03:39:00;;;;;;;17.98;5.45;;;;;;;;;;5068151;28;20044;-86
2023/12/21 03:41:26;;;;;;;24.38;6.15;;;;;;;;;;5053140;28;20218;-87
2023/12/21 03:43:52;;;;;;;22.33;5.95;;;;;;;;;;5039438;28;20036;-88
2023/12/21 03:46:18;;;;;;;21.13;4.28;;;;;;;;;;5070191;28;20085;-88
2023/12/21 03:48:45;;;;;;;22.13;5.63;;;;;;;;;;5051934;28;20839;-83
2023/12/21 03:51:11;;;;;;;27.63;6.85;;;;;;;;;;5069769;28;20487;-85
2023/12/21 03:53:37;;;;;;;19.88;6.35;;;;;;;;;;5051846;28;20048;-87
2023/12/21 03:56:03;;;;;;;25.95;6.10;;;;;;;;;;5050019;28;20062;-86
2023/12/21 03:58:29;;;;;;;14.05;5.40;;;;;;;;;;5051442;28;20044;-85
2023/12/21 04:00:55;;;;;;;19.85;5.35;;;;;;;;;;5050871;28;20036;-85
2023/12/21 04:03:21;;;;;;;21.13;6.18;;;;;;;;;;5035699;28;20122;-86
2023/12/21 04:05:47;;;;;;;25.08;6.70;;;;;;;;;;5065470;28;20036;-82
2023/12/21 04:08:15;;;;;;;26.00;5.97;;;;;;;;;;5039715;28;20047;-87
2023/12/21 04:10:41;;;;;;;22.92;6.03;;;;;;;;;;5067263;28;20103;-84
2023/12/21 04:13:07;;;;;;;26.92;6.20;;;;;;;;;;5035068;28;20043;-85
2023/12/21 04:15:33;;;;;;;21.42;6.03;;;;;;;;;;5066823;28;20068;-86
2023/12/21 04:17:59;;;;;;;26.70;5.90;;;;;;;;;;5049602;28;20050;-86
2023/12/21 04:20:25;;;;;;;23.02;5.43;;;;;;;;;;5052183;28;20032;-87
2023/12/21 04:22:51;;;;;;;29.75;7.50;;;;;;;;;;5051214;28;20506;-86
2023/12/21 04:25:17;;;;;;;25.25;5.82;;;;;;;;;;5067880;28;20389;-80
2023/12/21 04:27:43;;;;;;;16.85;5.85;;;;;;;;;;5049751;28;20075;-80
2023/12/21 04:30:09;;;;;;;27.88;7.15;;;;;;;;;;5046910;28;20057;-80
2023/12/21 04:32:36;;;;;;;28.63;6.20;;;;;;;;;;5059687;28;20098;-80
2023/12/21 04:35:02;;;;;;;20.42;5.80;;;;;;;;;;5065756;28;20036;-79
2023/12/21 04:37:28;;;;;;;21.25;6.43;;;;;;;;;;5043706;28;20060;-80
2023/12/21 04:39:54;;;;;;;25.77;6.43;;;;;;;;;;5029164;28;20032;-79
2023/12/21 04:42:20;;;;;;;21.17;5.78;;;;;;;;;;5057921;28;20123;-79
2023/12/21 04:44:46;;;;;;;31.65;5.85;;;;;;;;;;5046653;28;20410;-79
2023/12/21 04:47:12;;;;;;;29.02;6.82;;;;;;;;;;5028833;28;20039;-80
2023/12/21 04:49:39;;;;;;;29.25;6.68;;;;;;;;;;5065680;28;20048;-80
2023/12/21 04:52:05;;;;;;;24.02;6.53;;;;;;;;;;5044907;28;20098;-80
2023/12/21 04:54:31;;;;;;;31.88;6.32;;;;;;;;;;5031713;28;20119;-82
2023/12/21 04:56:57;;;;;;;26.95;6.43;;;;;;;;;;5044877;28;20041;-82
2023/12/21 04:59:23;;;;;;;19.55;5.80;;;;;;;;;;5044859;28;20028;-82
2023/12/21 05:01:51;;;;;;;20.60;6.53;;;;;;;;;;5062411;28;20495;-82
2023/12/21 05:04:17;;;;;;;33.00;7.22;;;;;;;;;;5046938;28;20036;-79
2023/12/21 05:06:43;;;;;;;24.80;6.90;;;;;;;;;;5061782;28;20032;-79
2023/12/21 05:09:09;;;;;;;25.95;5.75;;;;;;;;;;5046862;28;20036;-79
2023/12/21 05:11:35;;;;;;;21.30;5.72;;;;;;;;;;5045558;28;20064;-80
2023/12/21 05:14:01;;;;;;;24.15;6.38;;;;;;;;;;5045129;28;20131;-79
2023/12/21 05:16:27;;;;;;;26.88;5.32;;;;;;;;;;5060815;28;20033;-80
2023/12/21 05:18:53;;;;;;;22.77;5.07;;;;;;;;;;5056449;28;20080;-80
2023/12/21 05:21:19;;;;;;;19.70;6.07;;;;;;;;;;5057879;28;20052;-80
2023/12/21 05:23:45;;;;;;;21.70;5.82;;;;;;;;;;5027365;28;20046;-80
2023/12/21 05:26:12;;;;;;;16.90;4.55;;;;;;;;;;5061134;28;20044;-80
2023/12/21 05:28:41;;;;;;;15.20;4.75;;;;;;;;;;5030056;28;20100;-81
2023/12/21 05:31:08;;;;;;;20.88;5.32;;;;;;;;;;5054136;28;20054;-80
2023/12/21 05:33:34;;;;;;;31.33;4.85;;;;;;;;;;5063915;28;20044;-80
2023/12/21 05:36:00;;;;;;;19.55;4.60;;;;;;;;;;5030060;28;20044;-81
2023/12/21 05:38:26;;;;;;;17.83;4.35;;;;;;;;;;5032492;28;20094;-81
2023/12/21 05:40:52;;;;;;;13.70;3.95;;;;;;;;;;5049389;28;20081;-82
2023/12/21 05:43:19;;;;;;;21.35;5.22;;;;;;;;;;5046481;28;20094;-81
2023/12/21 05:45:45;;;;;;;21.90;4.10;;;;;;;;;;5051093;28;20098;-82
2023/12/21 05:48:12;;;;;;;13.40;4.68;;;;;;;;;;5046634;28;20048;-81
2023/12/21 05:50:38;;;;;;;12.23;4.68;;;;;;;;;;5050641;28;20443;-81
2023/12/21 05:53:04;;;;;;;16.40;5.07;;;;;;;;;;5050534;28;20036;-81
2023/12/21 05:55:31;;;;;;;18.27;4.45;;;;;;;;;;5050776;28;20427;-81
2023/12/21 05:57:57;;;;;;;19.15;4.70;;;;;;;;;;5053583;28;20399;-82
2023/12/21 06:00:23;;;;;;;21.02;4.82;;;;;;;;;;5066831;28;20060;-82
2023/12/21 06:02:49;;;;;;;18.25;4.40;;;;;;;;;;5037039;28;20439;-80
2023/12/21 06:05:16;;;;;;;21.58;5.07;;;;;;;;;;5064504;28;20292;-79
2023/12/21 06:07:43;;;;;;;17.02;4.68;;;;;;;;;;5054094;28;20148;-79
2023/12/21 06:10:09;;;;;;;12.68;4.43;;;;;;;;;;5037977;28;20044;-81
2023/12/21 06:12:35;;;;;;;17.55;4.13;;;;;;;;;;5071357;28;20036;-79
2023/12/21 06:15:04;;;;;;;23.52;6.10;;;;;;;;;;5067288;28;20067;-79
2023/12/21 06:17:30;;;;;;;17.95;5.15;;;;;;;;;;5051784;28;20061;-80
2023/12/21 06:19:57;;;;;;;21.60;4.38;;;;;;;;;;5052254;28;20491;-80
2023/12/21 06:22:25;;;;;;;20.42;3.80;;;;;;;;;;5066062;28;20380;-80
2023/12/21 06:24:51;;;;;;;19.15;4.75;;;;;;;;;;5050034;28;20117;-79
2023/12/21 06:27:17;;;;;;;25.30;4.72;;;;;;;;;;5056355;28;20047;-79
2023/12/21 06:29:43;;;;;;;20.48;4.30;;;;;;;;;;5055293;28;20126;-79
2023/12/21 06:32:09;;;;;;;20.40;4.57;;;;;;;;;;5068865;28;20108;-80
2023/12/21 06:34:35;;;;;;;20.83;4.43;;;;;;;;;;5050387;28;20052;-80
2023/12/21 06:37:03;;;;;;;19.08;5.35;;;;;;;;;;5068029;28;20040;-79
2023/12/21 06:39:31;;;;;;;27.67;4.95;;;;;;;;;;5035107;28;20032;-79
2023/12/21 06:41:57;;;;;;;18.30;3.92;;;;;;;;;;5067932;28;20063;-79
2023/12/21 06:44:23;;;;;;;21.08;4.43;;;;;;;;;;5066726;28;20090;-78
2023/12/21 06:46:50;;;;;;;16.88;3.88;;;;;;;;;;5051388;28;20032;-79
2023/12/21 06:49:17;;;;;;;15.50;3.35;;;;;;;;;;5053391;28;20041;-76
2023/12/21 06:51:44;;;;;;;23.95;4.18;;;;;;;;;;5039364;28;20387;-77
2023/12/21 06:54:11;;;;;;;13.32;3.67;;;;;;;;;;5069647;28;20054;-78
2023/12/21 06:56:37;;;;;;;10.30;2.75;;;;;;;;;;5067562;28;20078;-76
2023/12/21 06:59:04;;;;;;;16.02;3.63;;;;;;;;;;5070977;28;20096;-74
2023/12/21 07:01:31;;;;;;;14.23;3.35;;;;;;;;;;5036350;28;20136;-79
2023/12/21 07:03:57;;;;;;;18.15;4.13;;;;;;;;;;5070018;28;20047;-77
2023/12/21 07:06:25;;;;;;;12.32;3.33;;;;;;;;;;5066198;28;20116;-78
2023/12/21 07:08:51;;;;;;;13.50;3.38;;;;;;;;;;5051139;28;20552;-77
2023/12/21 07:11:17;;;;;;;10.32;2.85;;;;;;;;;;5067284;28;20399;-78
2023/12/21 07:13:44;;;;;;;8.02;2.53;;;;;;;;;;5050889;28;20043;-77
2023/12/21 07:16:11;;;;;;;19.00;3.55;;;;;;;;;;5053198;28;20051;-82
2023/12/21 07:18:37;;;;;;;8.90;3.08;;;;;;;;;;5049285;28;20131;-81
2023/12/21 07:21:04;;;;;;;10.15;2.88;;;;;;;;;;5050112;28;20036;-80
2023/12/21 07:23:30;;;;;;;12.52;2.95;;;;;;;;;;5066755;28;20372;-81
2023/12/21 07:25:56;;;;;;;10.05;2.50;;;;;;;;;;5066320;28;20155;-82
2023/12/21 07:28:23;;;;;;;9.45;2.58;;;;;;;;;;5056224;28;20515;-81
2023/12/21 07:30:49;;;;;;;8.20;2.28;;;;;;;;;;5055019;28;20096;-81
2023/12/21 07:33:16;;;;;;;8.23;2.40;;;;;;;;;;5052217;28;20096;-82
2023/12/21 07:35:42;;;;;;;7.00;2.08;;;;;;;;;;5071378;28;20048;-82
2023/12/21 07:38:08;;;;;;;8.55;2.33;;;;;;;;;;5069882;28;20047;-81
2023/12/21 07:40:34;;;;;;;6.25;2.22;;;;;;;;;;5042811;28;20039;-81
2023/12/21 07:43:00;;;;;;;9.98;2.67;;;;;;;;;;5064441;28;20048;-81
2023/12/21 07:45:26;;;;;;;5.22;1.88;;;;;;;;;;5034689;28;20043;-81
2023/12/21 07:47:52;;;;;;;7.63;1.65;;;;;;;;;;5051627;28;20040;-81
2023/12/21 07:50:18;;;;;;;9.02;2.38;;;;;;;;;;5069383;28;20131;-81
2023/12/21 07:52:44;;;;;;;14.43;3.40;;;;;;;;;;5061497;28;20043;-81
2023/12/21 07:55:10;;;;;;;9.20;2.17;;;;;;;;;;5066621;28;20468;-82
2023/12/21 07:57:36;;;;;;;4.15;2.03;;;;;;;;;;5064846;28;20059;-85
2023/12/21 08:00:03;;;;;;;8.20;2.10;;;;;;;;;;5065216;28;20167;-86
2023/12/21 08:02:29;;;;;;;8.38;2.15;;;;;;;;;;5061984;28;20501;-84
2023/12/21 08:04:55;;;;;;;10.48;2.45;;;;;;;;;;5063851;28;20033;-81
2023/12/21 08:07:21;;;;;;;7.40;2.50;;;;;;;;;;5065954;28;20407;-85
2023/12/21 08:09:47;;;;;;;16.77;3.10;;;;;;;;;;5066166;28;20036;-86
2023/12/21 08:12:14;;;;;;;12.65;2.63;;;;;;;;;;5032303;28;20091;-84
2023/12/21 08:14:40;;;;;;;13.35;3.03;;;;;;;;;;5064428;28;20048;-86
2023/12/21 08:17:10;;;;;;;21.35;3.53;;;;;;;;;;5048129;28;20044;-83
2023/12/21 08:19:37;;;;;;;11.25;3.00;;;;;;;;;;5036010;28;20070;-85
2023/12/21 08:22:04;;;;;;;14.32;3.40;;;;;;;;;;5067571;28;20113;-87
2023/12/21 08:24:30;;;;;;;21.30;3.55;;;;;;;;;;5048896;28;20040;-87
2023/12/21 08:26:56;;;;;;;20.17;4.43;;;;;;;;;;5063951;28;20058;-82
2023/12/21 08:29:22;;;;;;;24.58;4.68;;;;;;;;;;5052401;28;20044;-83
2023/12/21 08:31:49;;;;;;;25.35;4.15;;;;;;;;;;5050889;28;20057;-83
2023/12/21 08:34:15;;;;;;;29.77;5.43;;;;;;;;;;5046603;28;20040;-83
2023/12/21 08:36:41;;;;;;;14.38;4.30;;;;;;;;;;5051140;28;20040;-83
2023/12/21 08:39:07;;;;;;;29.90;5.47;;;;;;;;;;5033806;28;20041;-83
2023/12/21 08:41:33;;;;;;;27.92;4.70;;;;;;;;;;5047676;28;20076;-83
2023/12/21 08:43:59;;;;;;;32.30;5.38;;;;;;;;;;5050317;28;20125;-83
2023/12/21 08:46:25;;;;;;;28.23;5.47;;;;;;;;;;5034478;28;20048;-84
2023/12/21 08:48:52;;;;;;;20.45;4.05;;;;;;;;;;5065782;28;20544;-84
2023/12/21 08:51:18;;;;;;;30.73;5.53;;;;;;;;;;5048773;28;20041;-83
2023/12/21 08:53:44;;;;;;;19.40;4.30;;;;;;;;;;5033184;28;20377;-83
2023/12/21 08:56:10;;;;;;;26.52;5.20;;;;;;;;;;5061161;28;20101;-83
2023/12/21 08:58:37;;;;;;;31.88;5.65;;;;;;;;;;5067966;28;20040;-82
2023/12/21 09:01:03;;;;;;;27.83;5.45;;;;;;;;;;5060102;28;20041;-84
2023/12/21 09:03:29;;;;;;;30.70;5.43;;;;;;;;;;5045690;28;20037;-83
2023/12/21 09:05:55;;;;;;;28.58;5.53;;;;;;;;;;5067185;28;20048;-87
2023/12/21 09:08:21;;;;;;;33.72;5.05;;;;;;;;;;5069392;28;20044;-88
2023/12/21 09:10:47;;;;;;;28.80;5.55;;;;;;;;;;5050995;28;20059;-88
2023/12/21 09:13:13;;;;;;;23.88;4.43;;;;;;;;;;5064579;28;20090;-88
2023/12/21 09:15:39;;;;;;;25.45;4.75;;;;;;;;;;5053027;28;20085;-88
2023/12/21 09:18:08;;;;;;;20.40;4.10;;;;;;;;;;5032732;28;20037;-88
2023/12/21 09:20:34;;;;;;;31.33;3.78;;;;;;;;;;5031344;28;20041;-84
2023/12/21 09:23:00;;;;;;;26.88;4.68;;;;;;;;;;5047671;28;20037;-88
2023/12/21 09:25:27;;;;;;;32.90;4.38;;;;;;;;;;5064916;28;20143;-88
2023/12/21 09:27:53;;;;;;;27.33;3.78;;;;;;;;;;5047776;28;20045;-87
2023/12/21 09:30:20;;;;;;;26.70;5.43;;;;;;;;;;5053960;28;20056;-87
2023/12/21 09:32:47;;;;;;;33.70;5.15;;;;;;;;;;5056259;28;20048;-88
2023/12/21 09:35:13;;;;;;;25.15;3.50;;;;;;;;;;5074589;28;20072;-87
2023/12/21 09:37:39;;;;;;;24.02;5.07;;;;;;;;;;5050916;28;20045;-88
2023/12/21 09:40:06;;;;;;;26.65;4.13;;;;;;;;;;5051880;28;20044;-87
2023/12/21 09:42:33;;;;;;;28.27;4.85;;;;;;;;;;5037628;28;20085;-88
2023/12/21 09:45:01;;;;;;;26.08;4.82;;;;;;;;;;5039130;28;20040;-79
2023/12/21 09:47:29;;;;;;;30.60;5.18;;;;;;;;;;5067761;28;20111;-81
2023/12/21 09:49:56;;;;;;;26.05;4.60;;;;;;;;;;5067350;28;20048;-84
2023/12/21 09:52:23;;;;;;;22.52;4.28;;;;;;;;;;5064796;28;20049;-83
2023/12/21 09:54:50;;;;;;;35.03;4.72;;;;;;;;;;5047421;28;20055;-84
2023/12/21 09:57:16;;;;;;;26.08;3.63;;;;;;;;;;5067354;28;20052;-86
2023/12/21 09:59:43;;;;;;;23.73;3.38;;;;;;;;;;5055534;28;20044;-84
2023/12/21 10:02:11;;;;;;;22.27;3.95;;;;;;;;;;5069234;28;20036;-84
2023/12/21 10:04:40;;;;;;;35.83;5.38;;;;;;;;;;5068696;28;20115;-84
2023/12/21 10:07:07;;;;;;;24.85;3.63;;;;;;;;;;5066348;28;20076;-83
2023/12/21 10:09:34;;;;;;;26.98;3.97;;;;;;;;;;5054819;28;20043;-83
2023/12/21 10:12:00;;;;;;;28.33;4.55;;;;;;;;;;5053870;28;20133;-83
2023/12/21 10:14:29;;;;;;;24.83;4.47;;;;;;;;;;5068703;28;20036;-83
2023/12/21 10:16:55;;;;;;;25.23;5.13;;;;;;;;;;5071336;28;20055;-86
2023/12/21 10:19:21;;;;;;;25.73;4.32;;;;;;;;;;5053197;28;20041;-85
2023/12/21 10:21:47;;;;;;;25.77;3.83;;;;;;;;;;5037902;28;20037;-79
2023/12/21 10:24:13;;;;;;;33.85;5.88;;;;;;;;;;5054269;28;20036;-79
2023/12/21 10:26:46;;;;;;;33.33;4.68;;;;;;;;;;5053816;28;20040;-79
2023/12/21 10:29:16;;;;;;;22.10;3.00;;;;;;;;;;5069521;28;20037;-79
2023/12/21 10:31:46;;;;;;;34.53;4.35;;;;;;;;;;5051958;28;20083;-79
2023/12/21 10:34:12;;;;;;;25.40;3.78;;;;;;;;;;5052518;28;20087;-79
2023/12/21 10:36:45;;;;;;;27.50;4.75;;;;;;;;;;5049909;28;20754;-78
2023/12/21 10:39:12;;;;;;;41.55;7.53;;;;;;;;;;5064406;28;20052;-79
2023/12/21 10:41:43;;;;;;;29.08;3.47;;;;;;;;;;5034119;28;20086;-79
2023/12/21 10:44:09;;;;;;;41.10;5.78;;;;;;;;;;5049344;28;20123;-78
2023/12/21 10:46:38;;;;;;;32.88;4.75;;;;;;;;;;5050615;28;20063;-79
2023/12/21 10:49:06;;;;;;;24.48;3.78;;;;;;;;;;5067079;28;20056;-77
2023/12/21 10:51:36;;;;;;;32.72;3.75;;;;;;;;;;5052964;28;20142;-77
2023/12/21 10:54:02;;;;;;;32.47;5.72;;;;;;;;;;5049817;28;20051;-78
2023/12/21 10:56:29;;;;;;;23.60;4.45;;;;;;;;;;5064343;28;20045;-77
2023/12/21 10:58:56;;;;;;;30.92;4.00;;;;;;;;;;5047838;28;20043;-78
2023/12/21 11:01:22;;;;;;;38.05;5.82;;;;;;;;;;5047289;28;20068;-78
2023/12/21 11:03:50;;;;;;;37.90;5.40;;;;;;;;;;5065796;28;20048;-77
2023/12/21 11:06:17;;;;;;;30.35;5.75;;;;;;;;;;5046053;28;20496;-79
2023/12/21 11:08:47;;;;;;;35.97;4.95;;;;;;;;;;5048333;28;20063;-79
2023/12/21 11:11:13;;;;;;;28.17;4.78;;;;;;;;;;5047933;28;20071;-79
2023/12/21 11:13:42;;;;;;;29.88;5.38;;;;;;;;;;5067084;28;20051;-79
2023/12/21 11:16:12;;;;;;;23.38;3.92;;;;;;;;;;5047700;28;20045;-79
2023/12/21 11:18:39;;;;;;;23.75;4.30;;;;;;;;;;5048042;28;20056;-80
2023/12/21 11:21:06;;;;;;;34.13;4.57;;;;;;;;;;5045567;28;20040;-80
2023/12/21 11:23:32;;;;;;;29.00;3.83;;;;;;;;;;5048634;28;20028;-81
2023/12/21 11:25:59;;;;;;;30.48;4.50;;;;;;;;;;5032258;28;20121;-80
2023/12/21 11:28:32;;;;;;;28.20;4.40;;;;;;;;;;5042953;28;20083;-80
2023/12/21 11:30:58;;;;;;;31.63;5.25;;;;;;;;;;5044172;28;20079;-80
2023/12/21 11:33:28;;;;;;;31.45;5.95;;;;;;;;;;5045420;28;20036;-80
2023/12/21 11:35:55;;;;;;;31.58;5.07;;;;;;;;;;5048770;28;20431;-81
2023/12/21 11:38:24;;;;;;;40.60;6.13;;;;;;;;;;5029368;28;20048;-79
2023/12/21 11:40:50;;;;;;;40.60;4.82;;;;;;;;;;5065767;28;20044;-78
2023/12/21 11:43:24;;;;;;;36.78;4.25;;;;;;;;;;5047761;28;20175;-77
2023/12/21 11:45:50;;;;;;;30.27;5.18;;;;;;;;;;5043498;28;20040;-79
2023/12/21 11:48:17;;;;;;;29.48;4.78;;;;;;;;;;5026731;28;20048;-79
2023/12/21 11:50:43;;;;;;;33.28;6.43;;;;;;;;;;5047817;28;20032;-79
2023/12/21 11:53:10;;;;;;;37.42;4.63;;;;;;;;;;5042310;28;20044;-79
2023/12/21 11:55:42;;;;;;;21.58;4.07;;;;;;;;;;5061041;28;20052;-78
2023/12/21 11:58:22;;;;;;;26.70;4.32;;;;;;;;;;5048509;28;20078;-78
2023/12/21 12:00:51;;;;;;;24.02;3.95;;;;;;;;;;5064878;28;20082;-78
2023/12/21 12:03:18;;;;;;;33.85;4.65;;;;;;;;;;5062490;28;20559;-78
2023/12/21 12:05:45;;;;;;;33.63;4.82;;;;;;;;;;5027558;28;20044;-80
2023/12/21 12:08:11;;;;;;;31.75;4.93;;;;;;;;;;5031717;28;20471;-79
2023/12/21 12:10:37;;;;;;;27.83;4.40;;;;;;;;;;5064122;28;20789;-80
2023/12/21 12:13:04;;;;;;;33.20;4.72;;;;;;;;;;5047956;28;20051;-81
2023/12/21 12:15:31;;;;;;;36.90;6.28;;;;;;;;;;5062135;28;20040;-80
2023/12/21 12:17:57;;;;;;;23.30;3.83;;;;;;;;;;5065842;28;20148;-80
2023/12/21 12:20:23;;;;;;;28.45;3.58;;;;;;;;;;5060280;28;20089;-79
2023/12/21 12:22:52;;;;;;;10.88;2.10;;;;;;;;;;5032904;28;20033;-80
2023/12/21 12:25:19;;;;;;;19.98;2.72;;;;;;;;;;5064538;28;20048;-78
2023/12/21 12:27:46;;;;;;;22.20;3.00;;;;;;;;;;5065451;28;20040;-80
2023/12/21 12:30:12;;;;;;;26.80;3.38;;;;;;;;;;5029979;28;20064;-79
2023/12/21 12:32:40;;;;;;;25.33;2.38;;;;;;;;;;5052380;28;20503;-78
2023/12/21 12:35:09;;;;;;;20.75;3.05;;;;;;;;;;5068999;28;20058;-80
2023/12/21 12:37:36;;;;;;;29.15;4.00;;;;;;;;;;5050946;28;20042;-78
2023/12/21 12:40:04;;;;;;;21.98;2.75;;;;;;;;;;5051254;28;20436;-79
2023/12/21 12:42:31;;;;;;;18.30;3.25;;;;;;;;;;5050924;28;20047;-80
2023/12/21 12:44:59;;;;;;;29.05;4.13;;;;;;;;;;5069619;28;20044;-80
2023/12/21 12:47:26;;;;;;;25.77;3.15;;;;;;;;;;5069012;28;20044;-80
2023/12/21 12:49:53;;;;;;;21.35;2.97;;;;;;;;;;5069465;28;20039;-80
2023/12/21 12:52:21;;;;;;;22.83;3.20;;;;;;;;;;5049656;28;20051;-79
2023/12/21 12:54:48;;;;;;;20.65;3.28;;;;;;;;;;5050751;28;20036;-79
2023/12/21 12:57:14;;;;;;;31.80;4.05;;;;;;;;;;5048979;28;20044;-80
2023/12/21 12:59:40;;;;;;;27.42;3.20;;;;;;;;;;5068851;28;20036;-80
2023/12/21 13:02:06;;;;;;;27.52;4.18;;;;;;;;;;5050226;28;20548;-80
2023/12/21 13:04:32;;;;;;;33.90;3.50;;;;;;;;;;5068196;28;20051;-80
2023/12/21 13:06:59;;;;;;;41.20;5.47;;;;;;;;;;5066955;28;20504;-78
2023/12/21 13:09:26;;;;;;;31.73;4.35;;;;;;;;;;5069006;28;20071;-77
2023/12/21 13:11:52;;;;;;;29.52;4.75;;;;;;;;;;5052099;28;20048;-78
2023/12/21 13:14:18;;;;;;;22.13;4.43;;;;;;;;;;5068983;28;20051;-78
2023/12/21 13:16:45;;;;;;;18.05;3.17;;;;;;;;;;5054108;28;20182;-79
2023/12/21 13:19:11;;;;;;;24.77;3.47;;;;;;;;;;5068573;28;20036;-80
2023/12/21 13:21:38;;;;;;;21.33;3.25;;;;;;;;;;5054180;28;20055;-80
2023/12/21 13:24:05;;;;;;;14.82;2.78;;;;;;;;;;5068322;28;20043;-80
2023/12/21 13:26:31;;;;;;;19.92;4.15;;;;;;;;;;5066060;28;20040;-79
2023/12/21 13:29:00;;;;;;;18.90;3.20;;;;;;;;;;5064927;28;20384;-80
2023/12/21 13:31:26;;;;;;;27.13;4.32;;;;;;;;;;5068185;28;20137;-79
2023/12/21 13:33:53;;;;;;;33.85;4.97;;;;;;;;;;5047696;28;20098;-78
2023/12/21 13:36:20;;;;;;;37.63;6.72;;;;;;;;;;5054282;28;20093;-80
2023/12/21 13:38:47;;;;;;;35.20;4.28;;;;;;;;;;5043652;28;20139;-78
2023/12/21 13:41:14;;;;;;;42.42;6.85;;;;;;;;;;5095811;28;20188;-79
2023/12/21 13:43:42;;;;;;;43.50;4.22;;;;;;;;;;5047821;28;20043;-80
2023/12/21 13:46:09;;;;;;;32.25;4.07;;;;;;;;;;5072627;28;20050;-79
2023/12/21 13:48:36;;;;;;;34.95;5.75;;;;;;;;;;5071925;28;20075;-78
2023/12/21 13:51:02;;;;;;;39.80;6.45;;;;;;;;;;5069244;28;20040;-78
2023/12/21 13:53:28;;;;;;;39.55;4.68;;;;;;;;;;5052336;28;20048;-79
2023/12/21 13:55:55;;;;;;;40.75;5.72;;;;;;;;;;5035634;28;20085;-81
2023/12/21 13:58:21;;;;;;;39.53;5.78;;;;;;;;;;5069545;28;20494;-78
2023/12/21 14:00:49;;;;;;;34.38;5.28;;;;;;;;;;5076821;28;20126;-78
2023/12/21 14:03:16;;;;;;;47.05;4.70;;;;;;;;;;5063694;28;20032;-78
2023/12/21 14:05:42;;;;;;;30.63;3.92;;;;;;;;;;5069865;28;20054;-78
2023/12/21 14:08:08;;;;;;;36.33;4.05;;;;;;;;;;5055013;28;20433;-78
2023/12/21 14:10:34;;;;;;;26.85;4.40;;;;;;;;;;5052378;28;20234;-77
2023/12/21 14:13:04;;;;;;;31.02;3.50;;;;;;;;;;5073146;28;20051;-78
2023/12/21 14:15:30;;;;;;;39.35;3.50;;;;;;;;;;5069791;28;20050;-79
2023/12/21 14:17:56;;;;;;;26.33;3.90;;;;;;;;;;5073073;28;20051;-79
2023/12/21 14:20:23;;;;;;;34.20;3.28;;;;;;;;;;5070237;28;20039;-79
2023/12/21 14:22:50;;;;;;;32.08;3.33;;;;;;;;;;5059946;28;20059;-78
2023/12/21 14:25:16;;;;;;;27.70;4.05;;;;;;;;;;5050755;28;20036;-77
2023/12/21 14:27:45;;;;;;;35.40;4.85;;;;;;;;;;5053854;28;20393;-75